createdAt,value
2019-03-26T00:01:45.681Z,100600.70
2019-03-26T00:06:49.253Z,100608.66
2019-03-26T00:11:52.808Z,100620.61
2019-03-26T00:16:56.390Z,100619.26
2019-03-26T00:21:59.982Z,100621.92
2019-03-26T00:27:03.514Z,100620.58
2019-03-26T00:32:07.096Z,100628.89
2019-03-26T00:37:10.676Z,100631.10
2019-03-26T00:42:14.229Z,100633.33
2019-03-26T00:47:17.804Z,100637.33
2019-03-26T00:52:21.341Z,100637.92
2019-03-26T00:57:24.886Z,100645.73
2019-03-26T01:02:28.505Z,100649.62
2019-03-26T01:07:32.087Z,100664.64
2019-03-26T01:12:35.742Z,100671.74
2019-03-26T01:17:39.306Z,100673.98
2019-03-26T01:22:42.880Z,100676.91
2019-03-26T01:27:46.427Z,100682.51
2019-03-26T01:32:49.997Z,100684.63
2019-03-26T01:37:53.563Z,100684.30
2019-03-26T01:42:57.371Z,100693.41
2019-03-26T01:48:00.894Z,100693.66
2019-03-26T01:53:05.288Z,100691.16
2019-03-26T01:58:08.798Z,100702.51
2019-03-26T02:03:12.376Z,100706.22
2019-03-26T02:08:15.901Z,100707.63
2019-03-26T02:13:19.491Z,100716.92
2019-03-26T02:18:23.019Z,100725.73
2019-03-26T02:23:26.594Z,100729.73
2019-03-26T02:28:30.154Z,100726.40
2019-03-26T02:33:33.754Z,100729.98
2019-03-26T02:38:37.307Z,100734.08
2019-03-26T02:43:40.878Z,100734.83
2019-03-26T02:48:44.482Z,100735.81
2019-03-26T02:53:48.012Z,100729.89
2019-03-26T02:58:51.611Z,100746.51
2019-03-26T03:03:55.160Z,100744.85
2019-03-26T03:08:58.738Z,100738.36
2019-03-26T03:14:02.270Z,100737.54
2019-03-26T03:19:05.836Z,100750.09
2019-03-26T03:24:09.367Z,100747.17
2019-03-26T03:29:12.974Z,100747.72
2019-03-26T03:34:16.725Z,100751.80
2019-03-26T03:39:20.471Z,100758.02
2019-03-26T03:44:24.030Z,100755.80
2019-03-26T03:49:27.600Z,100758.30
2019-03-26T03:54:31.137Z,100768.19
2019-03-26T03:59:34.697Z,100763.95
2019-03-26T04:04:38.258Z,100770.65
2019-03-26T04:09:41.853Z,100774.06
2019-03-26T04:14:45.404Z,100782.57
2019-03-26T04:19:49.107Z,100784.64
2019-03-26T04:24:52.608Z,100777.22
2019-03-26T04:29:56.190Z,100784.62
2019-03-26T04:34:59.735Z,100794.06
2019-03-26T04:40:03.317Z,100803.50
2019-03-26T04:45:06.844Z,100810.67
2019-03-26T04:50:10.453Z,100818.75
2019-03-26T04:55:13.980Z,100823.23
2019-03-26T05:00:17.549Z,100826.87
2019-03-26T05:05:21.082Z,100828.27
2019-03-26T05:10:24.680Z,100830.50
2019-03-26T05:15:28.226Z,100828.77
2019-03-26T05:20:31.811Z,100834.56
2019-03-26T05:25:35.376Z,100838.52
2019-03-26T05:30:38.932Z,100839.41
2019-03-26T05:35:42.498Z,100822.09
2019-03-26T05:40:46.050Z,100825.50
2019-03-26T05:45:49.672Z,100832.20
2019-03-26T05:50:53.225Z,100834.94
2019-03-26T05:55:56.816Z,100826.98
2019-03-26T06:01:00.404Z,100828.16
2019-03-26T06:06:04.924Z,100831.00
2019-03-26T06:11:08.510Z,100805.88
2019-03-26T06:16:12.085Z,100814.78
2019-03-26T06:21:15.644Z,100818.16
2019-03-26T06:26:19.272Z,100822.88
2019-03-26T06:31:22.816Z,100835.28
2019-03-26T06:36:26.358Z,100847.02
2019-03-26T06:41:29.935Z,100849.33
2019-03-26T06:46:33.523Z,100845.93
2019-03-26T06:51:37.048Z,100856.25
2019-03-26T06:56:40.650Z,100860.29
2019-03-26T07:01:44.186Z,100853.30
2019-03-26T07:06:47.789Z,100847.09
2019-03-26T07:11:51.318Z,100846.97
2019-03-26T07:16:54.863Z,100846.00
2019-03-26T07:21:58.435Z,100841.41
2019-03-26T07:27:01.977Z,100842.74
2019-03-26T07:32:05.580Z,100840.02
2019-03-26T07:37:09.158Z,100835.66
2019-03-26T07:42:12.700Z,100830.80
2019-03-26T07:47:16.284Z,100829.67
2019-03-26T07:52:19.856Z,100814.75
2019-03-26T07:57:23.459Z,100800.50
2019-03-26T08:02:27.014Z,100792.81
2019-03-26T08:07:30.580Z,100786.59
2019-03-26T08:12:35.174Z,100793.92
2019-03-26T08:17:38.737Z,100795.77
2019-03-26T08:22:42.289Z,100792.84
2019-03-26T08:27:45.816Z,100781.59
2019-03-26T08:32:49.396Z,100770.92
2019-03-26T08:37:52.953Z,100771.03
2019-03-26T08:42:56.557Z,100766.72
2019-03-26T08:48:00.116Z,100761.67
2019-03-26T08:53:03.721Z,100761.09
2019-03-26T08:58:07.246Z,100757.63
2019-03-26T09:03:10.818Z,100750.23
2019-03-26T09:08:24.812Z,100754.80
2019-03-26T09:13:19.676Z,100760.91
2019-03-26T09:18:23.209Z,100764.27
2019-03-26T09:23:26.794Z,100761.23
2019-03-26T09:28:30.351Z,100757.36
2019-03-26T09:33:33.930Z,100749.77
2019-03-26T09:38:39.255Z,100743.59
2019-03-26T09:43:42.804Z,100743.25
2019-03-26T09:48:46.359Z,100721.52
2019-03-26T09:53:49.895Z,100716.59
2019-03-26T09:58:53.505Z,100700.71
2019-03-26T10:03:57.033Z,100713.16
2019-03-26T10:09:00.606Z,100698.26
2019-03-26T10:14:05.214Z,100698.05
2019-03-26T10:19:08.762Z,100667.31
2019-03-26T10:24:12.343Z,100709.58
2019-03-26T10:29:29.565Z,100709.06
2019-03-26T10:34:21.228Z,100714.84
2019-03-26T10:39:24.753Z,100732.66
2019-03-26T10:44:28.341Z,100708.91
2019-03-26T10:49:31.850Z,100703.23
2019-03-26T10:54:35.411Z,100706.61
2019-03-26T10:59:38.934Z,100708.42
2019-03-26T11:04:42.500Z,100695.21
2019-03-26T11:09:46.098Z,100697.53
2019-03-26T11:14:49.628Z,100695.94
2019-03-26T11:19:53.233Z,100714.27
2019-03-26T11:24:56.758Z,100723.69
2019-03-26T11:30:00.406Z,100744.17
2019-03-26T11:35:06.032Z,100736.73
2019-03-26T11:40:09.561Z,100762.81
2019-03-26T11:45:13.129Z,100766.08
2019-03-26T11:50:16.682Z,100767.41
2019-03-26T11:55:21.829Z,100767.41
2019-03-26T12:00:27.289Z,100743.33
2019-03-26T12:05:30.849Z,100752.08
2019-03-26T12:10:34.444Z,100757.00
2019-03-26T12:15:37.997Z,100738.80
2019-03-26T12:20:41.570Z,100765.48
2019-03-26T12:25:45.117Z,100752.36
2019-03-26T12:30:48.691Z,100755.09
2019-03-26T12:35:52.287Z,100751.63
2019-03-26T12:40:55.817Z,100740.52
2019-03-26T12:46:01.821Z,100741.25
2019-03-26T12:51:04.822Z,100738.14
2019-03-26T12:56:08.375Z,100727.67
2019-03-26T13:01:11.954Z,100728.67
2019-03-26T13:06:15.570Z,100725.52
2019-03-26T13:11:19.133Z,100712.73
2019-03-26T13:16:22.718Z,100699.13
2019-03-26T13:21:26.286Z,100708.50
2019-03-26T13:26:29.818Z,100692.66
2019-03-26T13:31:33.370Z,100680.66
2019-03-26T13:36:36.976Z,100662.58
2019-03-26T13:41:40.500Z,100663.13
2019-03-26T13:46:44.075Z,100668.40
2019-03-26T13:51:47.655Z,100656.02
2019-03-26T13:56:51.194Z,100654.46
2019-03-26T14:01:54.747Z,100653.69
2019-03-26T14:06:58.312Z,100659.38
2019-03-26T14:12:01.882Z,100657.41
2019-03-26T14:17:05.829Z,100651.72
2019-03-26T14:27:12.155Z,100637.62
2019-03-26T14:32:15.714Z,100638.62
2019-03-26T14:37:19.295Z,100633.97
2019-03-26T14:42:22.879Z,100648.25
2019-03-26T14:47:26.463Z,100642.66
2019-03-26T14:52:30.017Z,100646.87
2019-03-26T14:57:33.605Z,100618.31
2019-03-26T15:02:37.228Z,100637.20
2019-03-26T15:07:40.902Z,100631.20
2019-03-26T15:12:44.459Z,100631.31
2019-03-26T15:17:48.079Z,100632.74
2019-03-26T15:22:51.697Z,100611.20
2019-03-26T15:27:55.255Z,100624.53
2019-03-26T15:32:58.941Z,100622.74
2019-03-26T15:38:02.557Z,100630.59
2019-03-26T15:43:06.097Z,100627.58
2019-03-26T15:48:09.660Z,100619.22
2019-03-26T15:53:13.746Z,100626.00
2019-03-26T15:58:17.347Z,100615.88
2019-03-26T16:03:22.370Z,100615.25
2019-03-26T16:08:26.422Z,100623.09
2019-03-26T16:13:30.040Z,100614.66
2019-03-26T16:18:33.831Z,100622.17
2019-03-26T16:23:38.065Z,100636.94
2019-03-26T16:28:41.952Z,100620.40
2019-03-26T16:33:46.035Z,100635.01
2019-03-26T16:38:50.341Z,100635.01
2019-03-26T16:43:54.170Z,100632.86
2019-03-26T16:48:58.153Z,100643.13
2019-03-26T16:54:02.160Z,100648.57
2019-03-26T16:59:05.971Z,100651.40
2019-03-26T17:04:10.035Z,100646.22
2019-03-26T17:09:14.321Z,100658.49
2019-03-26T17:14:18.483Z,100661.53
2019-03-26T17:19:22.281Z,100655.20
2019-03-26T17:24:26.542Z,100654.48
2019-03-26T17:29:32.634Z,100664.77
2019-03-26T17:34:38.572Z,100668.80
2019-03-26T17:39:42.720Z,100684.16
2019-03-26T17:44:46.362Z,100684.47
2019-03-26T17:49:50.584Z,100707.25
2019-03-26T17:54:55.029Z,100714.13
2019-03-26T17:59:59.464Z,100717.14
2019-03-26T18:05:04.144Z,100713.84
2019-03-26T18:10:08.196Z,100724.77
2019-03-26T18:15:11.961Z,100736.41
2019-03-26T18:20:15.517Z,100754.16
2019-03-26T18:25:19.202Z,100758.54
2019-03-26T18:30:25.237Z,100758.74
2019-03-26T18:35:29.105Z,100814.13
2019-03-26T18:40:32.669Z,100833.19
2019-03-26T18:45:41.472Z,100820.83
2019-03-26T18:50:45.081Z,100826.52
2019-03-26T18:55:48.703Z,100823.17
2019-03-26T19:00:52.258Z,100819.04
2019-03-26T19:05:55.835Z,100819.76
2019-03-26T19:11:00.222Z,100828.27
2019-03-26T19:16:03.845Z,100841.24
2019-03-26T19:21:07.418Z,100835.50
2019-03-26T19:26:11.039Z,100840.95
2019-03-26T19:31:14.536Z,100833.17
2019-03-26T19:36:18.130Z,100834.23
2019-03-26T19:41:21.796Z,100855.66
2019-03-26T19:46:25.410Z,100864.59
2019-03-26T19:51:28.963Z,100873.45
2019-03-26T19:56:32.525Z,100893.83
2019-03-26T20:01:36.108Z,100896.48
2019-03-26T20:06:39.656Z,100900.86
2019-03-26T20:11:43.207Z,100907.09
2019-03-26T20:16:46.789Z,100901.77
2019-03-26T20:21:50.404Z,100903.25
2019-03-26T20:26:54.058Z,100918.44
2019-03-26T20:31:57.779Z,100930.61
2019-03-26T20:37:01.393Z,100930.69
2019-03-26T20:42:04.932Z,100946.34
2019-03-26T20:47:08.638Z,100944.92
2019-03-26T20:52:12.168Z,100952.51
2019-03-26T20:57:15.779Z,100956.40
2019-03-26T21:02:19.351Z,100966.22
2019-03-26T21:07:22.943Z,100980.06
2019-03-26T21:12:26.485Z,100986.76
2019-03-26T21:17:30.174Z,100998.74
2019-03-26T21:22:35.730Z,101014.62
2019-03-26T21:27:40.138Z,101005.33
2019-03-26T21:32:43.777Z,101022.95
2019-03-26T21:37:47.370Z,101026.48
2019-03-26T21:42:51.122Z,101030.00
2019-03-26T21:47:56.017Z,101032.27
2019-03-26T21:52:59.630Z,101040.28
2019-03-26T21:58:03.892Z,101045.37
2019-03-26T22:03:08.923Z,101044.09
2019-03-26T22:08:12.499Z,101049.52
2019-03-26T22:13:16.078Z,101052.65
2019-03-26T22:18:19.612Z,101058.15
2019-03-26T22:23:23.183Z,101063.52
2019-03-26T22:28:26.789Z,101060.52
2019-03-26T22:33:30.335Z,101076.09
2019-03-26T22:38:34.272Z,101079.73
2019-03-26T22:43:37.803Z,101088.16
2019-03-26T22:48:41.380Z,101091.73
2019-03-26T22:53:44.926Z,101095.67
2019-03-26T22:58:48.505Z,101110.62
2019-03-26T23:03:52.185Z,101114.92
2019-03-26T23:08:55.942Z,101116.16
2019-03-26T23:13:59.621Z,101123.98
2019-03-26T23:19:03.168Z,101130.48
2019-03-26T23:24:07.326Z,101139.77
2019-03-26T23:29:11.288Z,101140.77
2019-03-26T23:34:15.685Z,101145.38
2019-03-26T23:39:19.331Z,101142.65
2019-03-26T23:44:26.000Z,101142.93
2019-03-26T23:49:29.104Z,101149.06
2019-03-26T23:54:32.700Z,101149.74
2019-03-26T23:59:36.236Z,101153.91
